Time;durP1;ratioP1;P1;durP2;ratioP2;P2;SDS_P1;SDS_P2;PMS_P1;PMS_P2;Temp;Humidity;BMP_temperature;BMP_pressure;BME280_temperature;BME280_humidity;BME280_pressure;Samples;Min_cycle;Max_cycle;Signal;HPM_P1;HPM_P2
2022/02/08 00:01:24;;;;;;;36.57;21.97;;;;;;;2.25;100.00;97401.73;1772973;80;21097;-71
2022/02/08 00:03:52;;;;;;;37.53;22.53;;;;;;;2.28;100.00;97404.03;1779389;79;21053;-70
2022/02/08 00:06:38;;;;;;;37.47;22.47;;;;;;;2.31;100.00;97397.50;1753422;81;21037;-70
2022/02/08 00:08:58;;;;;;;42.73;24.07;;;;;;;2.31;100.00;97400.16;1779239;80;21554;-71
2022/02/08 00:11:25;;;;;;;41.70;22.33;;;;;;;2.33;100.00;97394.65;1798398;78;21065;-70
2022/02/08 00:13:52;;;;;;;38.53;22.53;;;;;;;2.35;100.00;97393.95;1757598;80;21006;-69
2022/02/08 00:16:19;;;;;;;38.97;21.77;;;;;;;2.35;100.00;97384.11;1747067;81;21042;-69
2022/02/08 00:18:46;;;;;;;37.73;22.43;;;;;;;2.35;100.00;97389.95;1746528;82;21006;-70
2022/02/08 00:21:13;;;;;;;36.80;20.93;;;;;;;2.36;100.00;97383.62;1720504;82;20981;-70
2022/02/08 00:23:40;;;;;;;39.03;22.90;;;;;;;2.37;100.00;97381.27;1752385;81;21035;-71
2022/02/08 00:26:07;;;;;;;36.17;22.50;;;;;;;2.37;100.00;97373.27;1752627;81;21584;-71
2022/02/08 00:28:42;;;;;;;42.13;23.43;;;;;;;2.37;100.00;97374.08;1752211;81;21057;-71
2022/02/08 00:31:09;;;;;;;39.33;22.40;;;;;;;2.36;100.00;97368.44;1729153;82;21510;-70
2022/02/08 00:33:37;;;;;;;40.80;24.27;;;;;;;2.35;100.00;97373.44;1743051;82;21066;-71
2022/02/08 00:36:05;;;;;;;37.30;21.57;;;;;;;2.34;100.00;97368.28;1726917;82;21555;-70
2022/02/08 00:38:34;;;;;;;37.47;21.27;;;;;;;2.31;100.00;97374.02;1743349;81;21027;-69
2022/02/08 00:41:01;;;;;;;45.77;24.20;;;;;;;2.29;100.00;97383.52;1738296;82;21070;-70
2022/02/08 00:43:46;;;;;;;41.30;23.43;;;;;;;2.27;100.00;97386.37;1746989;82;21503;-70
2022/02/08 00:48:40;;;;;;;44.13;22.83;;;;;;;2.27;100.00;97394.37;1665763;85;21041;-70
2022/02/08 00:51:06;;;;;;;37.80;22.30;;;;;;;2.31;100.00;97395.34;1653886;84;21140;-70
2022/02/08 00:53:33;;;;;;;40.30;23.33;;;;;;;2.32;100.00;97390.31;1662422;86;21065;-70
2022/02/08 00:56:00;;;;;;;42.60;22.67;;;;;;;2.35;100.00;97396.63;1663588;84;21009;-70
2022/02/08 00:58:27;;;;;;;47.67;24.93;;;;;;;2.36;100.00;97403.63;1664449;86;21032;-71
2022/02/08 01:00:56;;;;;;;40.67;24.50;;;;;;;2.37;100.00;97407.93;1661974;85;22383;-71
2022/02/08 01:03:23;;;;;;;48.53;26.23;;;;;;;2.37;100.00;97398.59;1658376;85;21585;-71
2022/02/08 01:06:05;;;;;;;40.97;23.17;;;;;;;2.37;100.00;97396.75;1672852;85;21040;-71
2022/02/08 01:08:30;;;;;;;41.47;23.30;;;;;;;2.39;100.00;97400.56;1629891;86;21639;-69
2022/02/08 01:10:54;;;;;;;44.67;24.70;;;;;;;2.38;100.00;97389.08;1634740;87;21069;-72
2022/02/08 01:13:21;;;;;;;47.77;24.93;;;;;;;2.39;100.00;97390.75;1650422;86;21042;-70
2022/02/08 01:15:48;;;;;;;47.40;25.57;;;;;;;2.40;100.00;97386.23;1652360;85;21615;-71
2022/02/08 01:18:22;;;;;;;53.13;26.73;;;;;;;2.40;100.00;97383.56;1651011;86;21046;-70
2022/02/08 01:20:51;;;;;;;43.57;25.70;;;;;;;2.40;100.00;97382.23;1656926;86;21078;-72
2022/02/08 01:23:18;;;;;;;47.83;25.77;;;;;;;2.39;100.00;97380.08;1717585;82;21011;-70
2022/02/08 01:28:31;;;;;;;44.50;25.00;;;;;;;2.39;100.00;97376.08;1715399;81;21046;-70
2022/02/08 01:30:58;;;;;;;46.20;25.90;;;;;;;2.42;100.00;97377.54;1716997;83;21077;-69
2022/02/08 01:38:22;;;;;;;50.97;27.03;;;;;;;2.41;100.00;97371.39;1636242;86;21163;-70
2022/02/08 01:41:06;;;;;;;47.20;26.23;;;;;;;2.43;100.00;97364.02;1630107;87;21054;-70
2022/02/08 01:48:50;;;;;;;46.63;26.17;;;;;;;2.48;100.00;97360.81;1645653;86;21045;-71
2022/02/08 01:51:11;;;;;;;45.63;25.30;;;;;;;2.46;100.00;97346.33;1634610;86;21073;-71
2022/02/08 01:53:44;;;;;;;45.83;23.77;;;;;;;2.45;100.00;97349.99;1640036;86;21090;-71
2022/02/08 01:56:11;;;;;;;41.30;24.03;;;;;;;2.45;100.00;97351.84;1615938;86;21030;-70
2022/02/08 01:58:38;;;;;;;45.80;24.37;;;;;;;2.46;100.00;97353.48;1641488;85;21050;-71
2022/02/08 02:01:13;;;;;;;45.17;24.63;;;;;;;2.46;100.00;97357.48;1567943;90;21108;-71
2022/02/08 02:03:44;;;;;;;64.83;40.33;;;;;;;2.45;100.00;97361.17;1547143;90;21671;-71
2022/02/08 02:06:11;;;;;;;68.93;46.40;;;;;;;2.45;100.00;97361.99;1578688;91;21028;-70
2022/02/08 02:08:38;;;;;;;46.30;30.63;;;;;;;2.43;100.00;97361.36;1544247;90;21083;-71
2022/02/08 02:11:06;;;;;;;47.80;27.90;;;;;;;2.42;100.00;97361.02;1522885;93;21097;-70
2022/02/08 02:16:06;;;;;;;40.03;22.70;;;;;;;2.41;100.00;97361.23;1530839;92;21081;-70
2022/02/08 02:18:33;;;;;;;40.27;23.67;;;;;;;2.41;100.00;97364.72;1559374;90;21029;-71
2022/02/08 02:21:03;;;;;;;39.40;21.87;;;;;;;2.40;100.00;97364.90;1572219;89;21109;-71
2022/02/08 02:23:31;;;;;;;38.73;22.93;;;;;;;2.40;100.00;97364.38;1579515;89;21101;-71
2022/02/08 02:25:59;;;;;;;38.20;23.37;;;;;;;2.40;100.00;97372.39;1576674;90;21077;-71
2022/02/08 02:28:27;;;;;;;38.83;22.60;;;;;;;2.38;100.00;97370.92;1572257;90;21078;-73
2022/02/08 02:31:01;;;;;;;41.53;22.57;;;;;;;2.37;100.00;97365.26;1568567;90;21552;-70
2022/02/08 02:33:28;;;;;;;40.77;23.03;;;;;;;2.35;100.00;97366.77;1537177;92;21061;-70
2022/02/08 02:35:56;;;;;;;38.50;23.27;;;;;;;2.34;100.00;97367.80;1576788;91;21603;-71
2022/02/08 02:38:24;;;;;;;36.97;21.87;;;;;;;2.34;100.00;97372.28;1600051;88;21161;-71
2022/02/08 02:40:52;;;;;;;40.10;23.20;;;;;;;2.32;100.00;97367.16;1589428;89;21043;-72
2022/02/08 02:43:21;;;;;;;37.77;21.97;;;;;;;2.33;100.00;97362.66;1586923;89;21665;-71
2022/02/08 02:45:48;;;;;;;37.83;22.53;;;;;;;2.33;100.00;97365.31;1586910;89;21073;-71
2022/02/08 02:48:16;;;;;;;40.07;23.10;;;;;;;2.32;100.00;97368.50;1597555;89;21515;-71
2022/02/08 02:50:51;;;;;;;42.80;24.90;;;;;;;2.31;100.00;97373.50;1591307;89;21132;-70
2022/02/08 02:53:14;;;;;;;41.57;24.10;;;;;;;2.29;100.00;97359.53;1580835;89;21553;-71
2022/02/08 02:55:41;;;;;;;41.63;24.17;;;;;;;2.31;100.00;97359.34;1593876;89;21094;-71
2022/02/08 02:58:09;;;;;;;40.63;24.40;;;;;;;2.31;100.00;97366.02;1673644;83;21379;-71
2022/02/08 03:00:48;;;;;;;40.50;23.60;;;;;;;2.30;100.00;97361.67;1689669;84;21053;-70
2022/02/08 03:19:36;;;;;;;34.17;21.50;;;;;;;2.17;100.00;97368.48;1723528;83;21462;-71
2022/02/08 03:22:03;;;;;;;34.70;22.23;;;;;;;2.14;100.00;97369.34;1723932;82;21036;-71
2022/02/08 03:24:32;;;;;;;34.43;21.10;;;;;;;2.13;100.00;97369.86;1721214;82;21072;-71
2022/02/08 03:26:59;;;;;;;31.07;18.97;;;;;;;2.14;100.00;97369.34;1722549;82;21017;-70
2022/02/08 03:29:27;;;;;;;30.00;18.43;;;;;;;2.14;100.00;97375.50;1687491;83;21085;-71
2022/02/08 03:31:54;;;;;;;28.30;16.70;;;;;;;2.13;100.00;97374.38;1723704;81;21021;-70
2022/02/08 03:34:21;;;;;;;25.30;16.03;;;;;;;2.12;100.00;97380.19;1696256;83;21494;-70
2022/02/08 03:36:50;;;;;;;29.27;18.17;;;;;;;2.11;100.00;97377.22;1720638;83;21021;-70
2022/02/08 03:39:22;;;;;;;29.00;18.43;;;;;;;2.10;100.00;97379.55;1718877;82;21002;-71
2022/02/08 03:41:55;;;;;;;30.30;18.80;;;;;;;2.10;100.00;97375.55;1642733;86;21050;-70
2022/02/08 03:44:30;;;;;;;29.53;17.47;;;;;;;2.13;100.00;97379.70;1626828;88;21081;-71
2022/02/08 03:46:52;;;;;;;29.50;18.17;;;;;;;2.14;100.00;97380.83;1641517;86;21093;-70
2022/02/08 03:49:19;;;;;;;27.67;17.47;;;;;;;2.14;100.00;97378.16;1649109;86;21110;-69
2022/02/08 03:51:53;;;;;;;28.80;17.87;;;;;;;2.15;100.00;97384.34;1644064;86;21076;-70
2022/02/08 03:54:18;;;;;;;29.63;17.23;;;;;;;2.15;100.00;97393.68;1693159;84;21049;-71
2022/02/08 03:56:47;;;;;;;29.63;17.80;;;;;;;2.14;100.00;97388.01;1675839;85;21060;-71
2022/02/08 03:59:15;;;;;;;28.33;17.67;;;;;;;2.14;100.00;97384.02;1654525;85;21020;-69
2022/02/08 04:02:11;;;;;;;27.00;16.33;;;;;;;2.13;100.00;97389.86;1677768;85;21083;-69
2022/02/08 04:07:01;;;;;;;26.70;16.13;;;;;;;2.12;100.00;97392.70;1683049;85;21073;-69
2022/02/08 04:09:26;;;;;;;26.77;15.87;;;;;;;2.10;100.00;97390.21;1691930;84;21075;-69
2022/02/08 04:31:20;;;;;;;34.63;20.07;;;;;;;2.02;100.00;97400.94;1695487;82;22170;-70
2022/02/08 04:41:11;;;;;;;40.40;22.90;;;;;;;2.02;100.00;97401.80;1660459;86;21050;-71
2022/02/08 04:51:20;;;;;;;36.93;22.73;;;;;;;2.03;100.00;97397.28;1608990;89;21058;-71
2022/02/08 04:53:51;;;;;;;38.13;22.67;;;;;;;2.03;100.00;97398.61;1608882;89;21046;-70
2022/02/08 04:58:54;;;;;;;37.33;22.67;;;;;;;2.03;100.00;97402.10;1574613;91;21062;-71
2022/02/08 05:01:22;;;;;;;38.17;22.53;;;;;;;2.03;100.00;97402.61;1574697;91;21109;-70
2022/02/08 05:34:35;;;;;;;35.70;21.90;;;;;;;2.13;100.00;97402.37;1657974;86;21073;-70
2022/02/08 05:44:42;;;;;;;41.17;24.40;;;;;;;2.22;100.00;97406.08;1695977;83;21066;-70
2022/02/08 05:47:07;;;;;;;39.53;22.40;;;;;;;2.23;100.00;97403.75;1693813;84;21585;-72
2022/02/08 05:49:44;;;;;;;41.63;24.77;;;;;;;2.26;100.00;97404.70;1692251;83;21050;-70
2022/02/08 05:54:41;;;;;;;42.67;24.60;;;;;;;2.34;100.00;97409.63;1693753;84;21541;-70
2022/02/08 05:57:09;;;;;;;41.33;25.97;;;;;;;2.37;100.00;97403.93;1696761;83;21522;-71
2022/02/08 05:59:36;;;;;;;48.63;28.43;;;;;;;2.38;100.00;97399.75;1699330;84;21092;-70
2022/02/08 06:02:03;;;;;;;51.27;30.67;;;;;;;2.40;100.00;97401.72;1710166;82;21073;-71
2022/02/08 06:04:49;;;;;;;58.70;32.77;;;;;;;2.42;100.00;97390.88;1687967;83;21581;-69
2022/02/08 06:07:20;;;;;;;68.50;38.90;;;;;;;2.45;100.00;97391.84;1670414;84;21104;-71
2022/02/08 06:09:48;;;;;;;48.07;28.80;;;;;;;2.48;100.00;97399.49;1675720;85;21596;-71
2022/02/08 06:12:15;;;;;;;44.40;25.50;;;;;;;2.51;100.00;97397.77;1673874;84;21116;-71
2022/02/08 06:14:45;;;;;;;39.40;22.87;;;;;;;2.53;100.00;97406.92;1713609;82;21071;-71
2022/02/08 06:17:14;;;;;;;38.63;22.50;;;;;;;2.55;100.00;97408.41;1716217;82;21039;-70
2022/02/08 06:19:42;;;;;;;45.73;27.93;;;;;;;2.56;100.00;97406.56;1713204;84;21117;-70
2022/02/08 06:22:08;;;;;;;40.63;25.20;;;;;;;2.56;100.00;97414.05;1751324;80;20994;-70
2022/02/08 06:24:35;;;;;;;39.90;25.20;;;;;;;2.57;100.00;97414.90;1757479;80;21009;-70
2022/02/08 06:27:03;;;;;;;48.07;29.73;;;;;;;2.58;100.00;97412.53;1780683;80;20966;-71
2022/02/08 06:29:30;;;;;;;43.00;26.53;;;;;;;2.60;100.00;97418.51;1751616;81;21026;-70
2022/02/08 06:31:58;;;;;;;47.30;29.83;;;;;;;2.60;100.00;97419.36;1751454;81;21319;-70
2022/02/08 06:34:31;;;;;;;48.17;28.80;;;;;;;2.61;100.00;97420.18;1750484;81;21059;-70
2022/02/08 06:37:05;;;;;;;39.70;23.13;;;;;;;2.60;100.00;97416.69;1779121;80;21005;-70
2022/02/08 06:39:32;;;;;;;41.33;23.00;;;;;;;2.61;100.00;97416.99;1773856;80;21014;-70
2022/02/08 06:41:55;;;;;;;40.77;25.57;;;;;;;2.64;100.00;97421.97;1780209;79;21084;-69
2022/02/08 06:44:22;;;;;;;46.93;27.93;;;;;;;2.67;100.00;97422.09;1783682;80;21523;-71
2022/02/08 06:46:49;;;;;;;38.93;23.10;;;;;;;2.65;100.00;97426.79;1774167;81;21025;-70
2022/02/08 06:49:17;;;;;;;37.90;21.53;;;;;;;2.63;100.00;97430.97;1780725;80;21076;-70
2022/02/08 06:51:44;;;;;;;33.00;19.80;;;;;;;2.64;100.00;97431.82;1797910;78;21016;-71
2022/02/08 06:54:11;;;;;;;35.77;20.77;;;;;;;2.64;100.00;97428.64;1781294;80;21041;-70
2022/02/08 06:56:38;;;;;;;35.07;20.30;;;;;;;2.64;100.00;97428.64;1782781;80;20990;-72
2022/02/08 06:59:08;;;;;;;39.57;22.07;;;;;;;2.67;100.00;97427.42;1745939;80;21036;-71
2022/02/08 07:01:35;;;;;;;40.47;23.97;;;;;;;2.69;100.00;97421.91;1781301;79;21384;-71
2022/02/08 07:04:05;;;;;;;41.53;23.77;;;;;;;2.72;100.00;97425.55;1784073;79;20985;-71
2022/02/08 07:06:34;;;;;;;40.63;23.63;;;;;;;2.74;100.00;97423.00;1776106;79;21006;-70
2022/02/08 07:09:03;;;;;;;49.53;28.87;;;;;;;2.77;100.00;97424.49;1784595;80;21049;-72
2022/02/08 07:11:30;;;;;;;58.70;32.73;;;;;;;2.78;100.00;97418.97;1776852;80;20994;-71
2022/02/08 07:13:58;;;;;;;54.47;31.73;;;;;;;2.80;100.00;97420.13;1784881;79;21461;-71
2022/02/08 07:16:27;;;;;;;66.57;37.57;;;;;;;2.82;100.00;97420.77;1784457;80;21459;-72
2022/02/08 07:18:54;;;;;;;56.20;32.10;;;;;;;2.86;100.00;97420.70;1782600;79;20999;-70
2022/02/08 07:21:21;;;;;;;63.30;36.40;;;;;;;2.89;100.00;97411.52;1778977;80;21444;-71
2022/02/08 07:23:49;;;;;;;60.37;35.87;;;;;;;2.93;100.00;97415.45;1783787;79;21463;-71
2022/02/08 07:26:16;;;;;;;48.37;29.30;;;;;;;2.96;100.00;97415.91;1779375;79;20974;-70
2022/02/08 07:28:44;;;;;;;42.17;23.53;;;;;;;2.97;100.00;97414.05;1787070;80;20978;-70
2022/02/08 07:31:16;;;;;;;41.53;21.63;;;;;;;2.98;100.00;97415.72;1778500;80;21025;-70
2022/02/08 07:33:48;;;;;;;53.80;31.23;;;;;;;3.01;100.00;97414.84;1774130;79;20969;-70
2022/02/08 07:36:22;;;;;;;50.70;29.17;;;;;;;3.01;100.00;97418.00;1778020;79;21006;-69
2022/02/08 07:38:46;;;;;;;53.30;30.63;;;;;;;3.03;100.00;97422.67;1781169;79;21494;-70
2022/02/08 07:43:40;;;;;;;50.97;27.70;;;;;;;3.03;100.00;97425.34;1782376;79;20963;-70
2022/02/08 07:46:15;;;;;;;44.93;26.13;;;;;;;3.03;100.00;97424.83;1770884;79;20987;-70
2022/02/08 07:48:42;;;;;;;44.47;27.23;;;;;;;3.01;100.00;97437.53;1764144;80;21468;-70
2022/02/08 07:51:13;;;;;;;52.20;30.90;;;;;;;3.02;100.00;97431.68;1759985;80;21721;-71
2022/02/08 07:53:40;;;;;;;46.20;26.77;;;;;;;3.02;100.00;97439.17;1781604;79;21009;-70
2022/02/08 07:56:07;;;;;;;42.33;24.37;;;;;;;3.03;100.00;97434.68;1761991;80;20986;-71
2022/02/08 07:58:35;;;;;;;47.50;26.73;;;;;;;3.03;100.00;97438.17;1745250;80;21061;-71
2022/02/08 08:01:07;;;;;;;58.53;30.70;;;;;;;3.03;100.00;97432.83;1752841;80;21009;-71
2022/02/08 08:03:31;;;;;;;49.80;28.70;;;;;;;3.03;100.00;97435.50;1717831;83;21089;-70
2022/02/08 08:05:59;;;;;;;48.43;25.97;;;;;;;3.03;100.00;97446.70;1739535;82;21049;-71
2022/02/08 08:08:26;;;;;;;50.13;28.40;;;;;;;3.05;100.00;97448.66;1743740;81;21042;-70
2022/02/08 08:10:54;;;;;;;50.07;28.30;;;;;;;3.07;100.00;97454.64;1713311;83;21055;-72
2022/02/08 08:13:22;;;;;;;58.47;34.40;;;;;;;3.10;100.00;97458.77;1719417;83;21026;-71
2022/02/08 08:15:57;;;;;;;59.80;34.83;;;;;;;3.10;100.00;97454.77;1715624;82;21041;-71
2022/02/08 08:18:37;;;;;;;56.50;32.50;;;;;;;3.11;100.00;97461.77;1717073;83;21043;-70
2022/02/08 08:20:49;;;;;;;61.57;37.87;;;;;;;3.10;100.00;97470.30;1782278;79;21067;-69
2022/02/08 08:23:16;;;;;;;60.80;40.23;;;;;;;3.10;100.00;97464.95;1786233;79;21037;-72
2022/02/08 08:25:44;;;;;;;73.43;44.93;;;;;;;3.09;100.00;97457.95;1782918;80;20978;-72
2022/02/08 08:28:12;;;;;;;56.13;36.80;;;;;;;3.09;100.00;97465.95;1777825;79;21037;-70
2022/02/08 08:30:39;;;;;;;60.77;39.67;;;;;;;3.11;100.00;97461.77;1780121;79;21005;-71
2022/02/08 08:33:07;;;;;;;62.23;42.80;;;;;;;3.13;100.00;97460.55;1753518;80;20979;-70
2022/02/08 08:35:35;;;;;;;69.50;49.20;;;;;;;3.14;100.00;97460.89;1760613;80;21009;-69
2022/02/08 08:38:06;;;;;;;74.37;49.10;;;;;;;3.19;100.00;97460.34;1784370;80;21562;-69
2022/02/08 08:43:36;;;;;;;88.60;58.73;;;;;;;3.27;100.00;97457.54;1779300;80;21291;-70
2022/02/08 08:53:22;;;;;;;90.63;46.27;;;;;;;3.32;100.00;97463.16;1698577;83;21004;-70
2022/02/08 08:55:49;;;;;;;83.47;46.33;;;;;;;3.32;100.00;97469.01;1684429;84;21040;-71
2022/02/08 08:58:16;;;;;;;69.20;40.97;;;;;;;3.30;100.00;97470.53;1651135;86;21055;-71
2022/02/08 09:00:43;;;;;;;55.10;32.30;;;;;;;3.29;100.00;97471.53;1626255;87;21034;-72
2022/02/08 09:03:11;;;;;;;42.70;23.80;;;;;;;3.28;100.00;97483.25;1689375;83;21205;-70
2022/02/08 09:05:39;;;;;;;42.57;27.47;;;;;;;3.27;100.00;97478.09;1684513;83;21062;-70
2022/02/08 09:08:07;;;;;;;47.73;29.17;;;;;;;3.25;100.00;97482.28;1682444;84;21016;-70
2022/02/08 09:10:51;;;;;;;62.63;33.93;;;;;;;3.24;100.00;97481.98;1661789;84;21086;-70
2022/02/08 09:15:54;;;;;;;49.30;22.93;;;;;;;3.17;100.00;97485.89;1627398;86;21042;-72
2022/02/08 09:25:52;;;;;;;59.67;28.07;;;;;;;3.07;100.00;97506.70;1618383;88;21574;-71
2022/02/08 09:28:39;;;;;;;46.37;26.43;;;;;;;3.05;100.00;97502.06;1652461;85;21530;-70
2022/02/08 09:30:58;;;;;;;43.80;25.33;;;;;;;3.05;100.00;97512.75;1680969;85;21050;-71
2022/02/08 09:33:21;;;;;;;44.80;22.23;;;;;;;3.02;100.00;97501.09;1675189;85;21098;-71
2022/02/08 09:35:51;;;;;;;49.63;25.03;;;;;;;3.01;100.00;97506.95;1685412;84;21069;-70
2022/02/08 09:38:22;;;;;;;45.80;26.23;;;;;;;3.03;100.00;97514.26;1735948;82;21030;-70
2022/02/08 09:40:50;;;;;;;52.07;28.20;;;;;;;3.04;100.00;97508.41;1736601;83;21034;-70
2022/02/08 09:43:18;;;;;;;44.20;25.07;;;;;;;3.05;100.00;97503.40;1737343;83;21514;-70
2022/02/08 09:45:47;;;;;;;69.50;45.63;;;;;;;3.07;100.00;97500.03;1731301;83;21522;-71
2022/02/08 09:48:26;;;;;;;46.50;26.37;;;;;;;3.11;100.00;97504.49;1650611;86;21042;-73
2022/02/08 09:50:50;;;;;;;35.57;20.87;;;;;;;3.10;100.00;97498.33;1702802;84;21046;-70
2022/02/08 09:53:29;;;;;;;41.50;23.73;;;;;;;3.09;100.00;97497.18;1655416;85;21030;-71
2022/02/08 09:55:49;;;;;;;42.50;24.70;;;;;;;3.08;100.00;97498.19;1702953;84;21062;-69
2022/02/08 09:58:16;;;;;;;94.03;47.10;;;;;;;3.06;100.00;97498.88;1650676;87;21066;-70
2022/02/08 10:00:43;;;;;;;62.33;34.70;;;;;;;3.05;100.00;97504.73;1706295;84;21074;-70
2022/02/08 10:03:16;;;;;;;59.63;33.63;;;;;;;3.06;100.00;97497.03;1659903;85;21066;-71
2022/02/08 10:05:52;;;;;;;67.73;38.33;;;;;;;3.10;100.00;97498.82;1722582;83;21050;-71
2022/02/08 10:08:19;;;;;;;84.63;45.93;;;;;;;3.13;100.00;97495.78;1630134;85;21709;-71
2022/02/08 10:10:48;;;;;;;84.23;49.80;;;;;;;3.15;100.00;97497.76;1724902;83;21238;-70
2022/02/08 10:21:49;;;;;;;93.10;50.57;;;;;;;3.25;100.00;97475.60;1635084;83;21587;-68
2022/02/08 10:24:18;;;;;;;90.57;52.70;;;;;;;3.32;100.00;97471.68;1671811;84;21058;-71
2022/02/08 10:29:27;;;;;;;82.97;55.70;;;;;;;3.45;100.00;97464.31;1607514;88;21159;-70
2022/02/08 10:40:10;;;;;;;99.13;60.40;;;;;;;3.59;100.00;97436.72;1597877;86;21478;-70
2022/02/08 10:42:40;;;;;;;82.57;53.07;;;;;;;3.62;100.00;97437.68;1611502;87;21039;-70
2022/02/08 10:45:34;;;;;;;86.60;52.37;;;;;;;3.67;100.00;97438.45;1614413;87;21130;-70
2022/02/08 10:48:07;;;;;;;104.77;62.30;;;;;;;3.70;100.00;97439.39;1617185;86;21526;-70
2022/02/08 10:50:44;;;;;;;102.00;61.00;;;;;;;3.72;100.00;97432.85;1624847;84;21561;-71
2022/02/08 10:53:12;;;;;;;104.57;61.43;;;;;;;3.73;100.00;97435.01;1572553;88;21146;-70
2022/02/08 10:55:51;;;;;;;78.90;47.07;;;;;;;3.72;100.00;97432.85;1593397;86;21071;-70
2022/02/08 10:58:31;;;;;;;84.33;47.87;;;;;;;3.74;100.00;97438.83;1571569;89;21032;-72
2022/02/08 11:01:06;;;;;;;117.13;71.83;;;;;;;3.72;100.00;97436.86;1570947;88;21610;-70
2022/02/08 11:03:37;;;;;;;95.17;57.50;;;;;;;3.71;100.00;97439.72;1578274;89;21103;-70
2022/02/08 11:06:11;;;;;;;82.50;53.33;;;;;;;3.71;100.00;97437.87;1537379;91;21104;-70
2022/02/08 11:22:52;;;;;;;194.17;117.60;;;;;;;3.45;100.00;97481.16;1538972;92;21119;-70
2022/02/08 11:27:58;;;;;;;107.17;70.87;;;;;;;3.36;100.00;97495.14;1550154;90;21143;-70
2022/02/08 11:30:54;;;;;;;78.15;46.95;;;;;;;3.28;100.00;97502.46;1519264;92;21626;-70
2022/02/08 11:33:36;;;;;;;87.40;57.33;;;;;;;3.25;100.00;97512.17;1547799;89;21108;-68
2022/02/08 11:50:44;;;;;;;95.37;62.40;;;;;;;2.92;100.00;97554.77;1602197;88;21099;-70
2022/02/08 11:53:19;;;;;;;87.83;57.57;;;;;;;2.88;100.00;97562.80;1593734;88;21563;-69
2022/02/08 11:59:04;;;;;;;84.73;55.93;;;;;;;2.83;100.00;97571.38;1657771;85;21065;-68
2022/02/08 12:04:37;;;;;;;81.00;50.20;;;;;;;2.83;100.00;97581.20;1669053;85;21055;-70
2022/02/08 12:09:56;;;;;;;77.70;50.57;;;;;;;2.84;100.00;97592.21;1659279;85;21039;-68
2022/02/08 13:04:51;;;;;;;147.97;88.03;;;;;;;2.31;100.00;97705.50;1773927;79;21101;-70
2022/02/08 14:03:15;;;;;;;46.17;31.00;;;;;;;1.25;100.00;97863.30;1667514;85;21094;-70
2022/02/08 14:16:08;;;;;;;50.15;35.78;;;;;;;1.10;100.00;97898.24;1776190;80;21015;-70
2022/02/08 14:18:42;;;;;;;39.07;27.73;;;;;;;1.07;100.00;97914.53;1773335;80;21240;-70
2022/02/08 14:23:53;;;;;;;38.57;25.93;;;;;;;1.03;100.00;97923.34;1775467;80;21049;-70
2022/02/08 14:34:39;;;;;;;38.43;28.20;;;;;;;0.98;100.00;97925.65;1774119;80;21014;-70
2022/02/08 14:37:14;;;;;;;42.80;30.67;;;;;;;0.97;100.00;97927.95;1755645;81;21014;-69
2022/02/08 15:09:36;;;;;;;44.77;32.03;;;;;;;0.77;100.00;97990.42;1751646;81;21065;-70
2022/02/08 15:12:17;;;;;;;45.60;31.23;;;;;;;0.74;100.00;97998.21;1752190;81;21066;-72
2022/02/08 15:14:49;;;;;;;41.30;29.27;;;;;;;0.73;100.00;98002.70;1758607;81;21028;-68
2022/02/08 15:17:13;;;;;;;44.10;31.83;;;;;;;0.73;100.00;98003.21;1753345;80;21032;-69
2022/02/08 15:19:42;;;;;;;46.80;32.57;;;;;;;0.72;100.00;97999.70;1725523;81;21030;-69
2022/02/08 15:22:09;;;;;;;46.87;34.60;;;;;;;0.71;100.00;97998.55;1757700;80;21003;-68
2022/02/08 15:24:37;;;;;;;43.67;32.03;;;;;;;0.69;100.00;98012.01;1751638;81;21054;-70
2022/02/08 15:27:08;;;;;;;47.87;34.73;;;;;;;0.70;100.00;98009.67;1754960;81;21050;-70
2022/02/08 15:29:35;;;;;;;45.57;33.20;;;;;;;0.71;100.00;98009.20;1754092;81;21531;-70
2022/02/08 15:32:05;;;;;;;43.27;28.67;;;;;;;0.72;100.00;98020.16;1754142;80;21562;-70
2022/02/08 15:34:34;;;;;;;52.53;37.83;;;;;;;0.71;100.00;98014.01;1740517;81;20994;-72
2022/02/08 15:37:02;;;;;;;52.33;37.40;;;;;;;0.71;100.00;98018.00;1749385;81;21396;-69
2022/02/08 15:39:29;;;;;;;51.77;36.70;;;;;;;0.70;100.00;98020.81;1723535;82;21006;-70
2022/02/08 15:42:03;;;;;;;51.90;37.00;;;;;;;0.69;100.00;98019.98;1723661;81;21013;-70
2022/02/08 15:44:32;;;;;;;40.10;27.10;;;;;;;0.66;100.00;98021.63;1749985;81;20982;-70
2022/02/08 15:47:04;;;;;;;48.47;31.47;;;;;;;0.67;100.00;98027.77;1754092;81;21085;-70
2022/02/08 15:49:28;;;;;;;39.47;24.00;;;;;;;0.67;100.00;98030.43;1749983;81;21108;-70
2022/02/08 15:52:09;;;;;;;31.40;20.70;;;;;;;0.67;100.00;98039.73;1761037;80;21093;-69
2022/02/08 16:07:41;;;;;;;48.57;34.37;;;;;;;0.66;100.00;98049.55;1675232;84;21020;-70
2022/02/08 16:10:16;;;;;;;56.90;38.27;;;;;;;0.63;100.00;98052.52;1668438;83;21019;-69
2022/02/08 16:15:33;;;;;;;55.40;35.17;;;;;;;0.60;100.00;98054.66;1639668;86;20493;-68
2022/02/08 16:26:03;;;;;;;65.00;38.60;;;;;;;0.44;100.00;98065.52;1587805;89;21159;-70
2022/02/08 16:28:53;;;;;;;60.83;34.97;;;;;;;0.43;100.00;98065.19;1563244;90;21106;-70
2022/02/08 16:45:54;;;;;;;105.93;53.13;;;;;;;0.45;100.00;98071.69;1583112;90;21082;-69
2022/02/08 16:58:07;;;;;;;42.30;25.93;;;;;;;0.32;100.00;98093.34;1645258;87;21050;-69
2022/02/08 17:00:26;;;;;;;32.60;21.60;;;;;;;0.31;100.00;98093.84;1621591;87;21066;-70
2022/02/08 17:02:57;;;;;;;33.50;22.13;;;;;;;0.31;100.00;98106.30;1638311;87;21102;-68
2022/02/08 17:05:20;;;;;;;32.60;20.73;;;;;;;0.29;100.00;98110.95;1612262;88;21090;-69
2022/02/08 17:07:48;;;;;;;29.97;18.73;;;;;;;0.25;100.00;98117.06;1643096;87;21041;-71
2022/02/08 17:10:31;;;;;;;26.40;16.90;;;;;;;0.23;100.00;98123.03;1604287;88;21078;-69
2022/02/08 17:12:57;;;;;;;25.90;14.93;;;;;;;0.21;100.00;98122.32;1693788;84;21684;-70
2022/02/08 17:47:52;;;;;;;19.37;10.20;;;;;;;-0.20;100.00;98162.59;1743008;81;20997;-70
2022/02/08 17:50:19;;;;;;;21.30;10.33;;;;;;;-0.21;100.00;98158.78;1759893;80;21072;-70
2022/02/08 17:52:49;;;;;;;19.70;11.27;;;;;;;-0.22;100.00;98151.28;1733373;82;21010;-70
2022/02/08 17:55:16;;;;;;;19.10;10.90;;;;;;;-0.24;100.00;98155.92;1732495;82;21006;-70
2022/02/08 17:57:44;;;;;;;22.70;11.60;;;;;;;-0.26;100.00;98161.05;1774236;79;21046;-70
2022/02/08 18:00:13;;;;;;;24.70;12.77;;;;;;;-0.28;100.00;98159.04;1755313;82;20983;-70
2022/02/08 18:02:43;;;;;;;23.03;11.93;;;;;;;-0.29;100.00;98166.64;1738250;81;21073;-71
2022/02/08 18:05:12;;;;;;;20.57;11.57;;;;;;;-0.31;100.00;98170.77;1754277;81;21092;-70
2022/02/08 18:07:39;;;;;;;22.10;12.10;;;;;;;-0.30;100.00;98172.93;1704484;83;21036;-69
2022/02/08 18:10:08;;;;;;;18.60;10.77;;;;;;;-0.32;100.00;98165.14;1671903;86;21068;-69
2022/02/08 18:12:42;;;;;;;18.10;10.17;;;;;;;-0.30;100.00;98171.60;1647619;86;21544;-69
2022/02/08 18:15:12;;;;;;;20.40;10.30;;;;;;;-0.31;100.00;98176.59;1647846;87;21506;-69
2022/02/08 18:17:44;;;;;;;18.10;9.53;;;;;;;-0.31;100.00;98189.87;1643127;86;21089;-71
2022/02/08 18:20:22;;;;;;;21.47;11.70;;;;;;;-0.32;100.00;98194.35;1625135;87;21006;-69
2022/02/08 18:22:52;;;;;;;19.77;10.33;;;;;;;-0.33;100.00;98205.12;1642290;86;21054;-70
2022/02/08 19:03:54;;;;;;;20.97;11.90;;;;;;;-0.38;100.00;98208.20;1673732;85;21084;-69
2022/02/08 19:18:42;;;;;;;18.87;10.47;;;;;;;-0.36;100.00;98220.84;1644772;86;21081;-70
2022/02/08 19:23:37;;;;;;;19.90;10.23;;;;;;;-0.35;100.00;98226.51;1644533;85;21104;-70
2022/02/08 19:26:06;;;;;;;18.60;9.80;;;;;;;-0.34;100.00;98229.48;1644008;85;21021;-69
2022/02/08 19:28:36;;;;;;;18.33;10.13;;;;;;;-0.35;100.00;98235.80;1665767;85;21022;-70
2022/02/08 19:31:03;;;;;;;19.10;9.57;;;;;;;-0.34;100.00;98237.95;1667324;85;21061;-69
2022/02/08 19:33:30;;;;;;;18.33;9.77;;;;;;;-0.34;100.00;98233.97;1644155;85;21045;-69
2022/02/08 19:35:57;;;;;;;16.90;9.33;;;;;;;-0.33;100.00;98240.47;1672290;85;21000;-69
2022/02/08 19:38:26;;;;;;;17.17;9.20;;;;;;;-0.34;100.00;98244.09;1667062;85;21071;-70